sensor_id;sensor_type;location;lat;lon;timestamp;P1;durP1;ratioP1;P2;durP2;ratioP2
35909;SDS011;22004;49.120;-0.200;2022-10-17T17:30:04;40.50;;;23.27;;
35909;SDS011;22004;49.120;-0.200;2022-10-17T17:35:05;11.75;;;6.32;;
35909;SDS011;22004;49.120;-0.200;2022-10-17T17:37:30;11.45;;;5.65;;
35909;SDS011;22004;49.120;-0.200;2022-10-17T17:39:56;14.20;;;8.25;;
35909;SDS011;22004;49.120;-0.200;2022-10-17T17:42:21;37.03;;;20.13;;
35909;SDS011;22004;49.120;-0.200;2022-10-17T17:44:47;20.65;;;11.75;;
35909;SDS011;22004;49.120;-0.200;2022-10-17T17:47:13;16.58;;;10.23;;
35909;SDS011;22004;49.120;-0.200;2022-10-17T17:49:39;15.13;;;7.63;;
35909;SDS011;22004;49.120;-0.200;2022-10-17T17:52:04;9.75;;;5.97;;
35909;SDS011;22004;49.120;-0.200;2022-10-17T17:54:29;15.40;;;7.97;;
35909;SDS011;22004;49.120;-0.200;2022-10-17T17:56:55;9.85;;;4.97;;
35909;SDS011;22004;49.120;-0.200;2022-10-17T17:59:20;11.57;;;5.47;;
35909;SDS011;22004;49.120;-0.200;2022-10-17T18:01:46;9.55;;;4.90;;
35909;SDS011;22004;49.120;-0.200;2022-10-17T18:04:11;9.32;;;4.82;;
35909;SDS011;22004;49.120;-0.200;2022-10-17T18:06:37;10.20;;;3.50;;
35909;SDS011;22004;49.120;-0.200;2022-10-17T18:09:03;5.75;;;4.00;;
35909;SDS011;22004;49.120;-0.200;2022-10-17T18:11:30;8.10;;;4.40;;
35909;SDS011;22004;49.120;-0.200;2022-10-17T18:13:56;9.18;;;5.57;;
35909;SDS011;22004;49.120;-0.200;2022-10-17T18:16:27;11.48;;;6.82;;
35909;SDS011;22004;49.120;-0.200;2022-10-17T18:18:53;10.27;;;6.00;;
35909;SDS011;22004;49.120;-0.200;2022-10-17T18:21:19;10.07;;;5.43;;
35909;SDS011;22004;49.120;-0.200;2022-10-17T18:23:45;13.68;;;5.35;;
35909;SDS011;22004;49.120;-0.200;2022-10-17T18:26:11;16.55;;;7.47;;
35909;SDS011;22004;49.120;-0.200;2022-10-17T18:28:38;9.52;;;5.53;;
35909;SDS011;22004;49.120;-0.200;2022-10-17T18:31:12;7.63;;;4.22;;
35909;SDS011;22004;49.120;-0.200;2022-10-17T18:33:39;13.77;;;5.88;;
35909;SDS011;22004;49.120;-0.200;2022-10-17T18:36:08;12.18;;;5.95;;
35909;SDS011;22004;49.120;-0.200;2022-10-17T18:38:35;11.82;;;5.82;;
35909;SDS011;22004;49.120;-0.200;2022-10-17T18:41:19;7.25;;;4.65;;
35909;SDS011;22004;49.120;-0.200;2022-10-17T18:43:47;6.78;;;4.47;;
35909;SDS011;22004;49.120;-0.200;2022-10-17T18:46:15;7.10;;;4.03;;
35909;SDS011;22004;49.120;-0.200;2022-10-17T18:48:42;9.15;;;4.18;;
35909;SDS011;22004;49.120;-0.200;2022-10-17T18:51:09;8.32;;;4.13;;
35909;SDS011;22004;49.120;-0.200;2022-10-17T18:53:39;6.30;;;4.15;;
35909;SDS011;22004;49.120;-0.200;2022-10-17T18:56:09;6.22;;;4.03;;
35909;SDS011;22004;49.120;-0.200;2022-10-17T18:58:36;7.55;;;3.65;;
35909;SDS011;22004;49.120;-0.200;2022-10-17T19:01:02;7.97;;;3.97;;
35909;SDS011;22004;49.120;-0.200;2022-10-17T19:03:29;13.35;;;7.15;;
35909;SDS011;22004;49.120;-0.200;2022-10-17T19:05:55;14.60;;;6.43;;
35909;SDS011;22004;49.120;-0.200;2022-10-17T19:08:24;11.93;;;5.93;;
35909;SDS011;22004;49.120;-0.200;2022-10-17T19:10:50;11.52;;;5.80;;
35909;SDS011;22004;49.120;-0.200;2022-10-17T19:13:15;13.38;;;5.82;;
35909;SDS011;22004;49.120;-0.200;2022-10-17T19:15:41;11.10;;;5.32;;
35909;SDS011;22004;49.120;-0.200;2022-10-17T19:18:06;10.88;;;5.57;;
35909;SDS011;22004;49.120;-0.200;2022-10-17T19:20:32;13.23;;;5.65;;
35909;SDS011;22004;49.120;-0.200;2022-10-17T19:22:58;12.93;;;4.90;;
35909;SDS011;22004;49.120;-0.200;2022-10-17T19:25:23;11.45;;;4.80;;
35909;SDS011;22004;49.120;-0.200;2022-10-17T19:27:49;9.65;;;5.28;;
35909;SDS011;22004;49.120;-0.200;2022-10-17T19:30:15;9.10;;;5.28;;
35909;SDS011;22004;49.120;-0.200;2022-10-17T19:32:40;9.95;;;4.75;;
35909;SDS011;22004;49.120;-0.200;2022-10-17T19:35:06;9.02;;;5.25;;
35909;SDS011;22004;49.120;-0.200;2022-10-17T19:37:32;8.52;;;4.70;;
35909;SDS011;22004;49.120;-0.200;2022-10-17T19:39:58;8.23;;;4.93;;
35909;SDS011;22004;49.120;-0.200;2022-10-17T19:42:23;9.05;;;4.63;;
35909;SDS011;22004;49.120;-0.200;2022-10-17T19:44:49;12.25;;;4.82;;
35909;SDS011;22004;49.120;-0.200;2022-10-17T19:47:14;10.75;;;4.57;;
35909;SDS011;22004;49.120;-0.200;2022-10-17T19:49:39;8.57;;;4.50;;
35909;SDS011;22004;49.120;-0.200;2022-10-17T19:52:06;9.57;;;4.40;;
35909;SDS011;22004;49.120;-0.200;2022-10-17T19:54:31;6.97;;;4.70;;
35909;SDS011;22004;49.120;-0.200;2022-10-17T19:56:57;10.57;;;5.22;;
35909;SDS011;22004;49.120;-0.200;2022-10-17T19:59:22;9.80;;;4.97;;
35909;SDS011;22004;49.120;-0.200;2022-10-17T20:01:47;7.28;;;4.38;;
35909;SDS011;22004;49.120;-0.200;2022-10-17T20:04:13;11.18;;;5.07;;
35909;SDS011;22004;49.120;-0.200;2022-10-17T20:06:38;8.18;;;4.82;;
35909;SDS011;22004;49.120;-0.200;2022-10-17T20:09:05;10.10;;;4.68;;
35909;SDS011;22004;49.120;-0.200;2022-10-17T20:11:31;8.55;;;4.80;;
35909;SDS011;22004;49.120;-0.200;2022-10-17T20:13:57;10.85;;;4.68;;
35909;SDS011;22004;49.120;-0.200;2022-10-17T20:16:25;14.55;;;5.30;;
35909;SDS011;22004;49.120;-0.200;2022-10-17T20:18:53;13.45;;;4.47;;
35909;SDS011;22004;49.120;-0.200;2022-10-17T20:21:21;8.52;;;4.60;;
35909;SDS011;22004;49.120;-0.200;2022-10-17T20:23:48;7.53;;;4.30;;
35909;SDS011;22004;49.120;-0.200;2022-10-17T20:26:16;7.40;;;4.35;;
35909;SDS011;22004;49.120;-0.200;2022-10-17T20:28:45;8.73;;;4.40;;
35909;SDS011;22004;49.120;-0.200;2022-10-17T20:31:11;6.95;;;4.05;;
35909;SDS011;22004;49.120;-0.200;2022-10-17T20:33:37;9.52;;;4.60;;
35909;SDS011;22004;49.120;-0.200;2022-10-17T20:36:03;8.77;;;4.13;;
35909;SDS011;22004;49.120;-0.200;2022-10-17T20:38:29;7.78;;;4.43;;
35909;SDS011;22004;49.120;-0.200;2022-10-17T20:40:58;6.90;;;4.05;;
35909;SDS011;22004;49.120;-0.200;2022-10-17T20:43:25;6.18;;;4.00;;
35909;SDS011;22004;49.120;-0.200;2022-10-17T20:45:50;10.60;;;5.07;;
35909;SDS011;22004;49.120;-0.200;2022-10-17T20:48:15;7.47;;;4.00;;
35909;SDS011;22004;49.120;-0.200;2022-10-17T20:50:41;8.40;;;4.55;;
35909;SDS011;22004;49.120;-0.200;2022-10-17T20:53:08;6.53;;;4.20;;
35909;SDS011;22004;49.120;-0.200;2022-10-17T20:55:33;8.00;;;4.43;;
35909;SDS011;22004;49.120;-0.200;2022-10-17T20:57:58;8.77;;;4.60;;
35909;SDS011;22004;49.120;-0.200;2022-10-17T21:00:24;6.75;;;4.78;;
35909;SDS011;22004;49.120;-0.200;2022-10-17T21:02:50;12.93;;;5.03;;
35909;SDS011;22004;49.120;-0.200;2022-10-17T21:05:15;9.18;;;4.70;;
35909;SDS011;22004;49.120;-0.200;2022-10-17T21:07:40;8.88;;;4.50;;
35909;SDS011;22004;49.120;-0.200;2022-10-17T21:10:06;8.57;;;4.10;;
35909;SDS011;22004;49.120;-0.200;2022-10-17T21:12:32;7.65;;;4.07;;
35909;SDS011;22004;49.120;-0.200;2022-10-17T21:14:58;7.68;;;4.28;;
35909;SDS011;22004;49.120;-0.200;2022-10-17T21:17:24;9.70;;;4.65;;
35909;SDS011;22004;49.120;-0.200;2022-10-17T21:19:49;9.18;;;4.20;;
35909;SDS011;22004;49.120;-0.200;2022-10-17T21:22:14;7.75;;;4.43;;
35909;SDS011;22004;49.120;-0.200;2022-10-17T21:24:40;6.15;;;3.75;;
35909;SDS011;22004;49.120;-0.200;2022-10-17T21:27:06;9.55;;;4.50;;
35909;SDS011;22004;49.120;-0.200;2022-10-17T21:29:37;7.82;;;4.40;;
35909;SDS011;22004;49.120;-0.200;2022-10-17T21:32:03;7.38;;;4.13;;
35909;SDS011;22004;49.120;-0.200;2022-10-17T21:34:28;5.93;;;4.05;;
35909;SDS011;22004;49.120;-0.200;2022-10-17T21:36:54;7.70;;;4.35;;
35909;SDS011;22004;49.120;-0.200;2022-10-17T21:39:20;5.82;;;4.00;;
35909;SDS011;22004;49.120;-0.200;2022-10-17T21:41:48;7.63;;;4.00;;
35909;SDS011;22004;49.120;-0.200;2022-10-17T21:44:17;12.10;;;5.07;;
35909;SDS011;22004;49.120;-0.200;2022-10-17T21:46:44;6.30;;;3.92;;
35909;SDS011;22004;49.120;-0.200;2022-10-17T21:49:11;7.68;;;3.72;;
35909;SDS011;22004;49.120;-0.200;2022-10-17T21:51:38;7.93;;;4.38;;
35909;SDS011;22004;49.120;-0.200;2022-10-17T21:54:04;8.55;;;3.95;;
35909;SDS011;22004;49.120;-0.200;2022-10-17T21:56:29;6.05;;;3.63;;
35909;SDS011;22004;49.120;-0.200;2022-10-17T21:58:56;6.95;;;3.70;;
35909;SDS011;22004;49.120;-0.200;2022-10-17T22:01:23;9.50;;;4.10;;
35909;SDS011;22004;49.120;-0.200;2022-10-17T22:03:51;6.47;;;4.03;;
35909;SDS011;22004;49.120;-0.200;2022-10-17T22:06:20;7.63;;;3.95;;
35909;SDS011;22004;49.120;-0.200;2022-10-17T22:08:47;9.10;;;4.13;;
35909;SDS011;22004;49.120;-0.200;2022-10-17T22:11:14;6.82;;;3.92;;
35909;SDS011;22004;49.120;-0.200;2022-10-17T22:13:46;6.70;;;3.97;;
35909;SDS011;22004;49.120;-0.200;2022-10-17T22:16:12;7.35;;;4.13;;
35909;SDS011;22004;49.120;-0.200;2022-10-17T22:18:39;4.82;;;3.35;;
35909;SDS011;22004;49.120;-0.200;2022-10-17T22:21:07;7.88;;;3.67;;
35909;SDS011;22004;49.120;-0.200;2022-10-17T22:23:37;6.53;;;3.85;;
35909;SDS011;22004;49.120;-0.200;2022-10-17T22:26:03;4.80;;;3.38;;
35909;SDS011;22004;49.120;-0.200;2022-10-17T22:28:29;7.28;;;3.85;;
35909;SDS011;22004;49.120;-0.200;2022-10-17T22:30:55;4.93;;;3.75;;
35909;SDS011;22004;49.120;-0.200;2022-10-17T22:33:21;7.28;;;3.75;;
35909;SDS011;22004;49.120;-0.200;2022-10-17T22:35:46;5.28;;;3.55;;
35909;SDS011;22004;49.120;-0.200;2022-10-17T22:38:12;8.80;;;3.85;;
35909;SDS011;22004;49.120;-0.200;2022-10-17T22:40:38;6.57;;;3.95;;
35909;SDS011;22004;49.120;-0.200;2022-10-17T22:43:03;9.38;;;4.35;;
35909;SDS011;22004;49.120;-0.200;2022-10-17T22:45:29;7.53;;;4.10;;
35909;SDS011;22004;49.120;-0.200;2022-10-17T22:47:55;7.95;;;3.63;;
35909;SDS011;22004;49.120;-0.200;2022-10-17T22:50:21;4.80;;;3.90;;
35909;SDS011;22004;49.120;-0.200;2022-10-17T22:52:47;7.35;;;4.05;;
35909;SDS011;22004;49.120;-0.200;2022-10-17T22:55:13;6.05;;;3.63;;
35909;SDS011;22004;49.120;-0.200;2022-10-17T22:57:39;8.73;;;4.00;;
35909;SDS011;22004;49.120;-0.200;2022-10-17T23:00:05;8.65;;;4.30;;
35909;SDS011;22004;49.120;-0.200;2022-10-17T23:02:32;5.88;;;3.95;;
35909;SDS011;22004;49.120;-0.200;2022-10-17T23:04:58;5.38;;;3.72;;
35909;SDS011;22004;49.120;-0.200;2022-10-17T23:07:25;11.07;;;4.95;;
35909;SDS011;22004;49.120;-0.200;2022-10-17T23:09:50;6.35;;;3.60;;
35909;SDS011;22004;49.120;-0.200;2022-10-17T23:12:16;7.97;;;4.45;;
35909;SDS011;22004;49.120;-0.200;2022-10-17T23:14:41;6.28;;;3.65;;
35909;SDS011;22004;49.120;-0.200;2022-10-17T23:17:08;6.55;;;4.05;;
35909;SDS011;22004;49.120;-0.200;2022-10-17T23:19:34;6.72;;;4.03;;
35909;SDS011;22004;49.120;-0.200;2022-10-17T23:22:00;5.78;;;3.78;;
35909;SDS011;22004;49.120;-0.200;2022-10-17T23:24:26;7.82;;;4.20;;
35909;SDS011;22004;49.120;-0.200;2022-10-17T23:26:51;7.50;;;4.80;;
35909;SDS011;22004;49.120;-0.200;2022-10-17T23:29:17;7.95;;;4.50;;
35909;SDS011;22004;49.120;-0.200;2022-10-17T23:31:42;9.48;;;4.03;;
35909;SDS011;22004;49.120;-0.200;2022-10-17T23:34:08;6.90;;;3.78;;
35909;SDS011;22004;49.120;-0.200;2022-10-17T23:36:33;6.55;;;4.53;;
35909;SDS011;22004;49.120;-0.200;2022-10-17T23:38:59;10.15;;;5.65;;
35909;SDS011;22004;49.120;-0.200;2022-10-17T23:41:25;10.48;;;4.88;;
35909;SDS011;22004;49.120;-0.200;2022-10-17T23:43:50;8.45;;;5.20;;
35909;SDS011;22004;49.120;-0.200;2022-10-17T23:46:15;6.80;;;4.60;;
35909;SDS011;22004;49.120;-0.200;2022-10-17T23:48:41;7.90;;;4.38;;
35909;SDS011;22004;49.120;-0.200;2022-10-17T23:51:07;10.52;;;5.18;;
35909;SDS011;22004;49.120;-0.200;2022-10-17T23:53:33;12.00;;;4.80;;
35909;SDS011;22004;49.120;-0.200;2022-10-17T23:55:59;11.75;;;4.75;;
35909;SDS011;22004;49.120;-0.200;2022-10-17T23:58:25;7.45;;;4.63;;
